Terminal Aerodrome Forecast
Issued by NWS

Home | Current Version | Previous Version | Graphics & Text | Print | Product List | Glossary On
Versions: 1 2 3 4 5 6 7 8 9 10 11 12 13 14 15 16 17
000
FTUS42 KMHX 261700 RRA
TAFPGV
TAF
KPGV 261745Z 2618/2718 VRB04KT P6SM BKN080 OVC150
     FM262100 35005KT P6SM -RA OVC040
     FM270200 34009G15KT 6SM -RA BR SCT007 OVC020
     FM270900 33010G18KT 5SM -SN SCT007 OVC015
     FM271600 34008KT P6SM OVC025
      AMD LTD TO CLD VIS AND WIND=

USA.gov is the U.S. government's official web portal to all federal, state and local government web resources and services.